Time;durP1;ratioP1;P1;durP2;ratioP2;P2;SDS_P1;SDS_P2;PMS_P1;PMS_P2;Temp;Humidity;BMP_temperature;BMP_pressure;BME280_temperature;BME280_humidity;BME280_pressure;Samples;Min_cycle;Max_cycle;Signal;HPM_P1;HPM_P2
2024/03/01 00:00:56;;;;;;;5.70;5.20;;;;;;;4.04;100.00;91974.69;2107738;28;20032;-81
2024/03/01 00:01:58;;;;;;;7.00;5.60;;;;;;;4.10;100.00;91977.63;2099678;28;20445;-79
2024/03/01 00:02:59;;;;;;;5.65;5.10;;;;;;;4.03;100.00;91981.09;2100846;28;20024;-81
2024/03/01 00:04:00;;;;;;;5.90;5.40;;;;;;;4.03;100.00;91967.16;2116074;28;20035;-80
2024/03/01 00:05:01;;;;;;;6.43;4.88;;;;;;;4.14;100.00;91974.91;2107658;28;20105;-80
2024/03/01 00:06:03;;;;;;;5.75;5.25;;;;;;;4.09;100.00;91970.09;2116510;28;20047;-80
2024/03/01 00:07:04;;;;;;;5.57;5.03;;;;;;;4.19;100.00;91974.47;2115753;28;20108;-80
2024/03/01 00:08:06;;;;;;;5.80;5.20;;;;;;;4.29;100.00;91973.53;2099640;28;20401;-80
2024/03/01 00:09:07;;;;;;;5.85;5.30;;;;;;;4.30;100.00;91975.00;2099828;28;20031;-81
2024/03/01 00:10:08;;;;;;;5.43;4.93;;;;;;;4.37;100.00;91977.56;2091079;28;20032;-80
2024/03/01 00:11:09;;;;;;;5.60;5.00;;;;;;;4.30;100.00;91972.38;2099397;28;20499;-81
2024/03/01 00:12:10;;;;;;;5.93;5.32;;;;;;;4.33;100.00;91968.19;2115974;28;20106;-81
2024/03/01 00:13:11;;;;;;;6.05;5.05;;;;;;;4.34;100.00;91969.66;2106907;28;20020;-81
2024/03/01 00:14:12;;;;;;;5.82;5.25;;;;;;;4.44;100.00;91971.41;2107432;28;20035;-80
2024/03/01 00:15:13;;;;;;;5.80;5.20;;;;;;;4.37;100.00;91977.56;2115939;28;20125;-80
2024/03/01 00:16:14;;;;;;;5.28;4.78;;;;;;;4.40;100.00;91971.47;2113465;28;20028;-82
2024/03/01 00:17:17;;;;;;;5.47;4.97;;;;;;;4.39;100.00;91969.97;2107891;28;20028;-80
2024/03/01 00:18:18;;;;;;;5.78;5.28;;;;;;;4.39;100.00;91975.25;2099326;28;20068;-80
2024/03/01 00:19:19;;;;;;;5.45;4.93;;;;;;;4.27;100.00;91973.19;2107744;28;20028;-81
2024/03/01 00:20:21;;;;;;;5.50;5.00;;;;;;;4.28;100.00;91972.78;2115906;28;20012;-81
2024/03/01 00:21:22;;;;;;;5.35;4.80;;;;;;;4.38;100.00;91978.28;2112864;28;20023;-82
2024/03/01 00:22:23;;;;;;;5.55;5.05;;;;;;;4.35;100.00;91985.16;2107450;28;20051;-79
2024/03/01 00:23:26;;;;;;;5.53;4.80;;;;;;;4.39;100.00;91988.50;2107729;28;20035;-79
2024/03/01 00:24:27;;;;;;;5.15;4.65;;;;;;;4.37;100.00;91988.13;2107944;28;20476;-80
2024/03/01 00:25:28;;;;;;;5.07;4.68;;;;;;;4.44;100.00;91988.03;2101718;28;20466;-81
2024/03/01 00:26:29;;;;;;;5.53;4.90;;;;;;;4.38;100.00;91986.22;2099307;28;20068;-80
2024/03/01 00:27:30;;;;;;;5.43;4.93;;;;;;;4.34;100.00;91986.28;2099181;28;20016;-81
2024/03/01 00:28:31;;;;;;;7.38;5.20;;;;;;;4.45;100.00;91989.50;2096078;28;20107;-80
2024/03/01 00:29:32;;;;;;;4.97;4.57;;;;;;;4.12;100.00;91988.53;2108104;28;20396;-82
2024/03/01 00:30:34;;;;;;;5.40;4.93;;;;;;;4.23;100.00;91991.00;2107423;28;20431;-81
2024/03/01 00:31:36;;;;;;;6.47;5.00;;;;;;;4.27;100.00;91983.78;2099518;28;20028;-81
2024/03/01 00:32:37;;;;;;;5.63;4.80;;;;;;;4.38;100.00;91984.31;2099272;28;20029;-82
2024/03/01 00:33:38;;;;;;;5.28;4.78;;;;;;;4.34;100.00;91985.53;2112533;27;20083;-79
2024/03/01 00:34:39;;;;;;;7.65;4.90;;;;;;;4.51;100.00;91990.53;2116298;28;20411;-80
2024/03/01 00:35:40;;;;;;;5.18;4.70;;;;;;;4.55;100.00;91991.22;2124367;27;20027;-80
2024/03/01 00:36:41;;;;;;;5.05;4.65;;;;;;;4.48;100.00;91990.63;2124522;27;20057;-80
2024/03/01 00:37:42;;;;;;;5.65;5.00;;;;;;;4.48;100.00;91993.25;2124815;27;20027;-81
2024/03/01 00:38:43;;;;;;;5.35;4.78;;;;;;;4.43;100.00;91986.50;2124691;27;20069;-80
2024/03/01 00:39:44;;;;;;;5.97;5.28;;;;;;;4.21;100.00;91990.66;2116366;28;20023;-80
2024/03/01 00:40:45;;;;;;;5.60;5.10;;;;;;;4.28;100.00;91999.22;2124546;27;20018;-81
2024/03/01 00:41:46;;;;;;;5.80;4.78;;;;;;;4.36;100.00;91997.22;2124716;27;20431;-81
2024/03/01 00:42:47;;;;;;;4.93;4.53;;;;;;;4.20;100.00;91994.47;2116390;27;20051;-80
2024/03/01 00:43:48;;;;;;;5.10;4.63;;;;;;;4.19;100.00;91998.25;2107267;28;20056;-80
2024/03/01 00:44:49;;;;;;;5.38;4.88;;;;;;;4.24;100.00;91997.78;2116431;28;20012;-80
2024/03/01 00:45:50;;;;;;;5.65;5.15;;;;;;;4.18;100.00;91992.22;2121039;27;20025;-82
2024/03/01 00:46:51;;;;;;;5.10;4.70;;;;;;;4.15;100.00;91995.66;2108136;28;20476;-80
2024/03/01 00:47:52;;;;;;;5.03;4.63;;;;;;;4.31;100.00;92004.88;2107997;28;20345;-80
2024/03/01 00:48:54;;;;;;;5.20;4.70;;;;;;;4.28;100.00;91996.59;2111691;28;20019;-80
2024/03/01 00:49:55;;;;;;;5.50;5.00;;;;;;;4.08;100.00;91998.41;2115379;27;20024;-80
2024/03/01 00:50:56;;;;;;;5.53;4.95;;;;;;;4.12;100.00;91993.06;2116407;28;20043;-81
2024/03/01 00:51:57;;;;;;;5.80;5.20;;;;;;;4.20;100.00;91987.28;2116259;28;20023;-80
2024/03/01 00:53:05;;;;;;;5.60;5.10;;;;;;;4.28;100.00;91991.28;2122029;27;20015;-81
2024/03/01 00:54:06;;;;;;;5.55;4.68;;;;;;;4.34;100.00;91993.47;2108129;28;20377;-80
2024/03/01 00:55:07;;;;;;;5.70;5.20;;;;;;;4.18;100.00;91988.84;2111560;27;20057;-81
2024/03/01 00:56:11;;;;;;;5.68;5.18;;;;;;;4.28;100.00;91990.56;2125409;27;20042;-81
2024/03/01 00:57:12;;;;;;;4.85;4.45;;;;;;;4.44;100.00;91988.03;2124682;27;20033;-81
2024/03/01 00:58:13;;;;;;;5.32;4.90;;;;;;;4.45;100.00;91978.19;2113082;28;20027;-80
2024/03/01 00:59:14;;;;;;;5.03;4.63;;;;;;;4.29;100.00;91979.56;2099236;28;20032;-80
2024/03/01 01:00:16;;;;;;;5.22;4.72;;;;;;;4.26;100.00;91980.38;2110994;28;20026;-81
2024/03/01 01:01:17;;;;;;;5.07;4.57;;;;;;;4.28;100.00;91982.63;2100680;28;20024;-80
2024/03/01 01:02:18;;;;;;;5.10;4.57;;;;;;;4.65;100.00;91986.13;2106725;28;20054;-80
2024/03/01 01:03:19;;;;;;;5.03;4.55;;;;;;;4.66;100.00;91977.81;2033973;27;20840;-80
2024/03/01 01:04:20;;;;;;;5.43;4.93;;;;;;;4.58;100.00;91984.38;2061721;28;20031;-80
2024/03/01 01:05:24;;;;;;;6.65;4.90;;;;;;;4.41;100.00;91980.88;2048417;28;20060;-80
2024/03/01 01:06:25;;;;;;;5.10;4.60;;;;;;;4.33;100.00;91979.50;2005653;28;20062;-80
2024/03/01 01:07:26;;;;;;;5.32;4.82;;;;;;;4.44;100.00;91977.44;2034598;28;20028;-79
2024/03/01 01:08:27;;;;;;;5.25;4.68;;;;;;;4.41;100.00;91972.94;2010137;28;20035;-79
2024/03/01 01:09:29;;;;;;;5.10;4.70;;;;;;;4.33;100.00;91971.56;2051616;27;20061;-80
2024/03/01 01:10:31;;;;;;;4.85;4.45;;;;;;;4.21;100.00;91969.50;2069698;27;20134;-80
2024/03/01 01:11:32;;;;;;;4.93;4.53;;;;;;;4.26;100.00;91966.41;2072404;27;20027;-81
2024/03/01 01:12:33;;;;;;;4.82;4.40;;;;;;;4.23;100.00;91980.44;2091490;27;20051;-79
2024/03/01 01:13:34;;;;;;;4.93;4.53;;;;;;;4.29;100.00;91970.88;2091545;28;20054;-81
2024/03/01 01:14:35;;;;;;;4.80;4.40;;;;;;;4.15;100.00;91966.56;2088019;28;20032;-79
2024/03/01 01:15:36;;;;;;;4.75;4.35;;;;;;;4.14;100.00;91969.63;2090697;28;20067;-80
2024/03/01 01:16:37;;;;;;;4.95;4.50;;;;;;;4.32;100.00;91975.38;2083631;28;20020;-80
2024/03/01 01:17:38;;;;;;;4.95;4.45;;;;;;;4.27;100.00;91973.19;2086417;28;20039;-80
2024/03/01 01:18:39;;;;;;;4.93;4.53;;;;;;;4.32;100.00;91979.91;2091274;27;20419;-80
2024/03/01 01:19:40;;;;;;;5.15;4.65;;;;;;;4.21;100.00;91974.78;2099402;27;21924;-80
2024/03/01 01:20:41;;;;;;;5.00;4.50;;;;;;;4.15;100.00;91977.16;1994704;28;21223;-79
2024/03/01 01:21:42;;;;;;;5.07;4.57;;;;;;;4.17;100.00;91972.22;1989574;28;20053;-80
2024/03/01 01:22:43;;;;;;;4.60;4.20;;;;;;;4.15;100.00;91976.41;1992363;28;20035;-80
2024/03/01 01:23:44;;;;;;;4.60;4.20;;;;;;;4.08;100.00;91984.44;1938729;28;23090;-80
2024/03/01 01:24:45;;;;;;;5.40;4.85;;;;;;;4.10;100.00;91982.16;1912683;28;23803;-79
2024/03/01 01:25:46;;;;;;;5.00;4.50;;;;;;;4.22;100.00;91982.34;1937216;28;20117;-79
2024/03/01 01:26:47;;;;;;;5.25;4.75;;;;;;;4.27;100.00;91991.72;1952665;28;21669;-81
2024/03/01 01:27:48;;;;;;;4.97;4.47;;;;;;;4.11;100.00;91975.72;1870266;28;20223;-80
2024/03/01 01:28:51;;;;;;;4.90;4.50;;;;;;;4.21;100.00;91970.25;1833880;28;23369;-80
2024/03/01 01:29:52;;;;;;;4.55;4.15;;;;;;;4.23;100.00;91970.59;1817250;28;20039;-79
2024/03/01 01:30:54;;;;;;;5.45;4.78;;;;;;;4.18;100.00;91973.72;1852904;28;22315;-79
2024/03/01 01:31:55;;;;;;;5.20;4.70;;;;;;;4.32;100.00;91971.97;1854604;28;21250;-79
2024/03/01 01:32:56;;;;;;;5.00;4.50;;;;;;;4.44;100.00;91969.50;1838899;28;21001;-82
2024/03/01 01:33:57;;;;;;;5.10;4.32;;;;;;;4.49;100.00;91966.38;2046003;28;20050;-81
2024/03/01 01:34:58;;;;;;;5.03;3.85;;;;;;;4.50;100.00;91970.53;2086578;28;20055;-81
2024/03/01 01:35:59;;;;;;;5.47;4.20;;;;;;;4.45;100.00;91968.34;2098102;28;20297;-80
2024/03/01 01:37:00;;;;;;;5.50;4.30;;;;;;;4.37;100.00;91966.97;2042112;28;20024;-80
2024/03/01 01:38:01;;;;;;;4.68;4.28;;;;;;;4.50;100.00;91972.41;2057530;28;20035;-81
2024/03/01 01:39:04;;;;;;;4.85;4.30;;;;;;;4.51;100.00;91972.00;2081194;28;20491;-81
2024/03/01 01:40:05;;;;;;;4.47;4.07;;;;;;;4.43;100.00;91967.25;2086566;28;20032;-80
2024/03/01 01:41:06;;;;;;;5.00;4.20;;;;;;;4.50;100.00;91969.78;2098615;27;20035;-81
2024/03/01 01:42:07;;;;;;;4.93;4.40;;;;;;;4.40;100.00;91957.50;2081929;28;20027;-80
2024/03/01 01:43:08;;;;;;;5.32;4.20;;;;;;;4.45;100.00;91957.75;2060380;27;20113;-81
2024/03/01 01:44:09;;;;;;;4.70;4.30;;;;;;;4.45;100.00;91957.75;2053305;28;20032;-80
2024/03/01 01:45:10;;;;;;;5.10;4.60;;;;;;;4.33;100.00;91955.69;2058347;28;20059;-80
2024/03/01 01:46:16;;;;;;;4.80;4.40;;;;;;;4.26;100.00;91956.59;2075786;27;22229;-81
2024/03/01 01:47:17;;;;;;;5.00;4.10;;;;;;;4.35;100.00;91956.06;2088365;27;20031;-79
2024/03/01 01:48:18;;;;;;;4.40;4.00;;;;;;;4.41;100.00;91951.78;2081532;28;20104;-81
2024/03/01 01:49:22;;;;;;;4.80;4.40;;;;;;;4.43;100.00;91949.47;2070632;28;20106;-81
2024/03/01 01:50:24;;;;;;;6.13;4.57;;;;;;;4.29;100.00;91955.75;2082108;28;20032;-80
2024/03/01 01:51:27;;;;;;;5.30;4.78;;;;;;;4.33;100.00;91958.34;2094606;27;20415;-81
2024/03/01 01:52:31;;;;;;;6.72;4.65;;;;;;;4.32;100.00;91953.47;2115386;27;20038;-81
2024/03/01 01:53:42;;;;;;;5.05;4.60;;;;;;;4.43;100.00;91960.03;2115525;28;20045;-81
2024/03/01 01:54:43;;;;;;;4.68;4.28;;;;;;;4.26;100.00;91956.59;2101931;28;20020;-81
2024/03/01 01:55:47;;;;;;;4.65;4.25;;;;;;;4.39;100.00;91959.38;2107226;28;20027;-81
2024/03/01 01:56:49;;;;;;;4.80;4.40;;;;;;;4.34;100.00;91951.16;2099254;28;20024;-80
2024/03/01 01:57:51;;;;;;;4.40;4.00;;;;;;;4.30;100.00;91948.56;2099091;28;20024;-81
2024/03/01 01:58:53;;;;;;;4.85;4.30;;;;;;;4.28;100.00;91948.97;2098966;28;20024;-81
2024/03/01 01:59:57;;;;;;;5.40;4.90;;;;;;;4.37;100.00;91937.13;2098976;28;20028;-80
2024/03/01 02:00:58;;;;;;;4.50;4.20;;;;;;;4.42;100.00;91941.94;2099091;28;20103;-81
2024/03/01 02:01:59;;;;;;;4.68;4.28;;;;;;;4.40;100.00;91944.25;2090530;28;20370;-82
2024/03/01 02:02:59;;;;;;;4.50;4.10;;;;;;;4.44;100.00;91942.31;2107310;28;20019;-80
2024/03/01 02:04:01;;;;;;;4.65;4.25;;;;;;;4.42;100.00;91947.97;2115466;28;20023;-81
2024/03/01 02:05:03;;;;;;;5.38;4.75;;;;;;;4.57;100.00;91945.09;2123970;27;20084;-81
2024/03/01 02:06:05;;;;;;;4.88;4.47;;;;;;;4.41;100.00;91951.03;2108173;27;20028;-81
2024/03/01 02:07:06;;;;;;;5.30;4.57;;;;;;;4.52;100.00;91946.28;2114732;27;20469;-80
2024/03/01 02:08:07;;;;;;;5.10;4.60;;;;;;;4.52;100.00;91946.28;2105319;28;20074;-81
2024/03/01 02:09:18;;;;;;;5.70;4.93;;;;;;;4.53;100.00;91945.16;2098161;28;20028;-80
2024/03/01 02:10:19;;;;;;;4.22;3.92;;;;;;;4.66;100.00;91950.59;2099476;28;20024;-80
2024/03/01 02:11:20;;;;;;;4.43;4.03;;;;;;;4.46;100.00;91940.72;2106413;28;20065;-80
2024/03/01 02:12:21;;;;;;;5.15;4.57;;;;;;;4.44;100.00;91939.66;2121239;27;20018;-81
2024/03/01 02:13:22;;;;;;;5.80;4.20;;;;;;;4.44;100.00;91931.72;2117519;27;20023;-80
2024/03/01 02:14:25;;;;;;;4.35;3.95;;;;;;;4.56;100.00;91925.81;2101268;28;20063;-80
2024/03/01 02:15:28;;;;;;;4.72;4.32;;;;;;;4.42;100.00;91931.38;2098673;28;20021;-81
2024/03/01 02:16:29;;;;;;;4.15;3.75;;;;;;;4.50;100.00;91927.44;2094185;28;20032;-81
2024/03/01 02:17:30;;;;;;;4.20;3.85;;;;;;;4.43;100.00;91923.00;2098770;28;20028;-81
2024/03/01 02:18:33;;;;;;;4.30;3.90;;;;;;;4.41;100.00;91925.31;2107240;28;20036;-81
2024/03/01 02:19:34;;;;;;;3.97;3.58;;;;;;;4.33;100.00;91921.31;2107608;28;20379;-81
2024/03/01 02:20:37;;;;;;;4.10;3.70;;;;;;;4.53;100.00;91924.72;2108857;28;20020;-80
2024/03/01 02:22:03;;;;;;;4.15;3.75;;;;;;;4.54;100.00;91918.28;2112588;27;20079;-80
2024/03/01 02:23:09;;;;;;;3.83;3.53;;;;;;;4.41;100.00;91917.38;2108151;27;20031;-79
2024/03/01 02:24:10;;;;;;;4.20;3.80;;;;;;;4.24;100.00;91923.75;2115461;28;20019;-80
2024/03/01 02:26:55;;;;;;;;;;;;;;;3.38;100.00;91916.41;2149852;27;20117;-82
2024/03/01 02:27:55;;;;;;;3.40;3.08;;;;;;;3.54;100.00;91912.00;2140180;27;19921;-82
2024/03/01 02:28:56;;;;;;;4.68;3.42;;;;;;;3.49;100.00;91911.72;2131441;27;20023;-81
2024/03/01 02:29:57;;;;;;;4.00;3.60;;;;;;;3.61;100.00;91911.19;2131417;27;20462;-83
2024/03/01 02:30:59;;;;;;;4.28;3.75;;;;;;;3.62;100.00;91917.94;2122657;27;20067;-83
2024/03/01 02:32:00;;;;;;;4.35;3.60;;;;;;;3.61;100.00;91913.81;2139813;27;20123;-81
2024/03/01 02:33:01;;;;;;;5.22;3.88;;;;;;;3.53;100.00;91909.78;2131388;27;20031;-82
2024/03/01 02:34:02;;;;;;;3.78;3.47;;;;;;;3.57;100.00;91915.00;2124531;27;21721;-81
2024/03/01 02:35:03;;;;;;;3.45;3.13;;;;;;;3.59;100.00;91902.88;2123050;28;20072;-81
2024/03/01 02:36:06;;;;;;;3.45;3.15;;;;;;;3.66;100.00;91915.25;2127689;27;20059;-81
2024/03/01 02:37:09;;;;;;;3.53;3.22;;;;;;;3.54;100.00;91911.28;2123420;27;20020;-82
2024/03/01 02:38:10;;;;;;;3.45;3.15;;;;;;;3.34;100.00;91919.13;2122824;27;20348;-81
2024/03/01 02:39:17;;;;;;;3.60;3.30;;;;;;;3.33;100.00;91917.59;2122665;27;20027;-81
2024/03/01 02:40:18;;;;;;;3.88;3.47;;;;;;;3.49;100.00;91924.94;2123665;27;20081;-83
2024/03/01 02:41:20;;;;;;;4.82;3.53;;;;;;;3.37;100.00;91928.88;2122734;28;20023;-81
2024/03/01 02:42:21;;;;;;;5.18;3.80;;;;;;;3.41;100.00;91931.47;2110450;28;20554;-81
2024/03/01 02:43:22;;;;;;;4.18;3.72;;;;;;;3.48;100.00;91936.66;2114328;28;20024;-82
2024/03/01 02:44:23;;;;;;;4.53;4.07;;;;;;;3.49;100.00;91930.97;2119942;28;20047;-82
2024/03/01 02:45:24;;;;;;;4.63;4.22;;;;;;;3.42;100.00;91936.34;2113810;28;20111;-82
2024/03/01 02:46:27;;;;;;;5.00;4.50;;;;;;;3.38;100.00;91927.75;2120116;27;20103;-81
2024/03/01 02:47:28;;;;;;;4.60;4.20;;;;;;;3.38;100.00;91925.09;2131612;27;20048;-82
2024/03/01 02:48:29;;;;;;;4.68;4.22;;;;;;;3.40;100.00;91929.97;2124900;27;20490;-83
2024/03/01 02:49:30;;;;;;;5.07;4.20;;;;;;;3.35;100.00;91928.53;2122239;28;20030;-82
2024/03/01 02:50:31;;;;;;;4.15;3.85;;;;;;;3.27;100.00;91922.59;2113844;28;20032;-81
2024/03/01 02:51:32;;;;;;;4.28;3.70;;;;;;;3.30;100.00;91926.34;2118549;27;20375;-81
2024/03/01 02:52:33;;;;;;;3.80;3.50;;;;;;;3.38;100.00;91925.09;2114023;28;20030;-82
2024/03/01 02:53:34;;;;;;;4.18;3.80;;;;;;;3.47;100.00;91927.25;2105698;28;20020;-81
2024/03/01 02:54:35;;;;;;;3.72;3.42;;;;;;;3.51;100.00;91928.69;2113879;27;20045;-81
2024/03/01 02:55:35;;;;;;;4.43;4.03;;;;;;;3.57;100.00;91928.97;2130797;27;20034;-81
2024/03/01 02:56:36;;;;;;;3.95;3.63;;;;;;;3.57;100.00;91928.22;2122939;27;20024;-82
2024/03/01 02:57:37;;;;;;;4.15;3.78;;;;;;;3.43;100.00;91932.56;2131089;27;20102;-81
2024/03/01 02:58:38;;;;;;;3.83;3.53;;;;;;;3.37;100.00;91936.03;2117926;28;20043;-81
2024/03/01 02:59:39;;;;;;;3.60;3.30;;;;;;;3.45;100.00;91934.81;2113955;28;20102;-81
2024/03/01 03:00:40;;;;;;;3.38;3.17;;;;;;;3.47;100.00;91929.88;2105467;28;20127;-81
2024/03/01 03:01:41;;;;;;;3.80;3.50;;;;;;;3.47;100.00;91935.91;2096804;28;20038;-81
2024/03/01 03:02:42;;;;;;;3.83;3.17;;;;;;;3.48;100.00;91931.38;2116130;27;20019;-81
2024/03/01 03:03:43;;;;;;;4.00;3.70;;;;;;;3.46;100.00;91938.94;2130688;27;20022;-81
2024/03/01 03:04:44;;;;;;;4.00;3.60;;;;;;;3.59;100.00;91936.50;2122224;27;20488;-82
2024/03/01 03:05:45;;;;;;;3.83;3.53;;;;;;;3.63;100.00;91942.47;2115599;28;20088;-82
2024/03/01 03:06:46;;;;;;;5.20;3.85;;;;;;;3.54;100.00;91945.63;2105150;28;20020;-82
2024/03/01 03:07:47;;;;;;;4.10;3.78;;;;;;;3.52;100.00;91948.66;2097291;28;20021;-82
2024/03/01 03:08:48;;;;;;;3.65;3.35;;;;;;;3.52;100.00;91942.63;2105338;28;20031;-82
2024/03/01 03:09:49;;;;;;;3.80;3.50;;;;;;;3.56;100.00;91939.91;2113651;28;20469;-80
2024/03/01 03:10:51;;;;;;;4.05;3.70;;;;;;;3.64;100.00;91941.31;2122258;27;20430;-81
2024/03/01 03:11:52;;;;;;;4.78;3.75;;;;;;;3.53;100.00;91939.59;2131568;27;20030;-82
2024/03/01 03:12:53;;;;;;;3.35;3.00;;;;;;;3.61;100.00;91944.78;2115604;28;20107;-81
2024/03/01 03:13:54;;;;;;;4.03;3.33;;;;;;;3.65;100.00;91938.28;2113268;28;20023;-81
2024/03/01 03:14:55;;;;;;;3.92;3.53;;;;;;;3.65;100.00;91940.19;2105398;28;20021;-81
2024/03/01 03:15:59;;;;;;;3.78;3.35;;;;;;;3.67;100.00;91940.53;2118952;27;20027;-81
2024/03/01 03:17:00;;;;;;;4.13;3.13;;;;;;;3.65;100.00;91932.25;2128719;27;20030;-81
2024/03/01 03:18:01;;;;;;;3.63;3.33;;;;;;;3.73;100.00;91925.69;2121784;28;20199;-83
2024/03/01 03:19:02;;;;;;;3.40;3.10;;;;;;;3.74;100.00;91932.50;2121968;27;20019;-82
2024/03/01 03:20:09;;;;;;;3.47;3.13;;;;;;;3.75;100.00;91926.06;2122079;28;20072;-81
2024/03/01 03:21:10;;;;;;;3.38;2.95;;;;;;;3.92;100.00;91926.94;2120993;27;20110;-82
2024/03/01 03:22:11;;;;;;;3.80;3.17;;;;;;;3.94;100.00;91924.63;2113549;28;20032;-81
2024/03/01 03:23:12;;;;;;;3.83;3.53;;;;;;;3.89;100.00;91928.47;2113941;27;20440;-81
2024/03/01 03:24:14;;;;;;;3.67;3.38;;;;;;;3.72;100.00;91932.88;2113896;28;20031;-81
2024/03/01 03:25:15;;;;;;;3.67;3.38;;;;;;;3.74;100.00;91937.78;2113886;27;20484;-82
2024/03/01 03:26:16;;;;;;;4.15;3.40;;;;;;;3.76;100.00;91935.47;2130396;27;20112;-82
2024/03/01 03:27:17;;;;;;;3.78;3.45;;;;;;;3.85;100.00;91938.34;2113660;28;20032;-81
2024/03/01 03:28:21;;;;;;;4.00;3.60;;;;;;;3.87;100.00;91935.31;2110814;28;20310;-81
2024/03/01 03:29:22;;;;;;;3.80;3.47;;;;;;;3.92;100.00;91935.59;2106256;28;20032;-82
2024/03/01 03:30:24;;;;;;;3.70;3.40;;;;;;;3.97;100.00;91937.03;2113890;28;20059;-81
2024/03/01 03:31:28;;;;;;;3.83;3.45;;;;;;;3.96;100.00;91940.84;2122302;28;20049;-81
2024/03/01 03:32:29;;;;;;;4.20;3.80;;;;;;;3.92;100.00;91938.25;2122730;27;20035;-81
2024/03/01 03:33:31;;;;;;;4.00;3.70;;;;;;;3.87;100.00;91948.53;2122396;28;20058;-81
2024/03/01 03:34:33;;;;;;;4.53;3.72;;;;;;;3.83;100.00;91953.88;2109261;28;20150;-82
2024/03/01 03:35:33;;;;;;;4.82;4.32;;;;;;;3.85;100.00;91958.75;2114154;28;20058;-81
2024/03/01 03:36:59;;;;;;;4.60;4.20;;;;;;;3.91;100.00;91951.88;2105618;28;20020;-81
2024/03/01 03:38:03;;;;;;;4.60;4.15;;;;;;;3.90;100.00;91960.94;2121184;27;20733;-82
2024/03/01 03:39:06;;;;;;;4.93;4.50;;;;;;;3.86;100.00;91960.97;2108457;28;20058;-81
2024/03/01 03:40:14;;;;;;;4.90;4.40;;;;;;;3.90;100.00;91964.31;2100536;28;20037;-82
2024/03/01 03:41:15;;;;;;;4.38;3.97;;;;;;;3.85;100.00;91958.75;2110282;27;20032;-81
2024/03/01 03:42:16;;;;;;;4.38;3.97;;;;;;;3.77;100.00;91958.09;2124699;27;20118;-81
2024/03/01 03:43:17;;;;;;;4.53;4.05;;;;;;;3.88;100.00;91948.13;2116756;28;20024;-82
2024/03/01 03:44:18;;;;;;;4.60;4.20;;;;;;;3.89;100.00;91956.81;2116762;28;20511;-83
2024/03/01 03:45:19;;;;;;;4.22;3.88;;;;;;;3.93;100.00;91952.94;2116315;28;20051;-81
2024/03/01 03:46:20;;;;;;;4.65;4.13;;;;;;;3.97;100.00;91950.25;2121761;27;20063;-82
2024/03/01 03:47:21;;;;;;;4.43;4.00;;;;;;;3.93;100.00;91949.56;2098756;28;20380;-83
2024/03/01 03:48:22;;;;;;;4.07;3.75;;;;;;;3.82;100.00;91949.75;2101956;28;20039;-81
2024/03/01 03:49:23;;;;;;;4.57;4.20;;;;;;;4.11;100.00;91951.91;2107040;28;20031;-83
2024/03/01 03:50:24;;;;;;;4.25;3.85;;;;;;;4.08;100.00;91950.81;2107058;28;20440;-81
2024/03/01 03:51:27;;;;;;;4.15;3.85;;;;;;;3.96;100.00;91949.50;2107011;28;20441;-81
2024/03/01 03:52:28;;;;;;;4.07;3.67;;;;;;;3.92;100.00;91945.44;2114233;27;20547;-82
2024/03/01 03:53:29;;;;;;;4.40;4.00;;;;;;;3.95;100.00;91948.03;2115370;28;20022;-80
2024/03/01 03:54:31;;;;;;;4.13;3.83;;;;;;;3.93;100.00;91945.03;2123926;27;20019;-81
2024/03/01 03:55:32;;;;;;;3.80;3.50;;;;;;;3.87;100.00;91948.53;2124152;27;20452;-81
2024/03/01 03:56:33;;;;;;;4.13;3.72;;;;;;;3.94;100.00;91951.78;2132961;27;20029;-82
2024/03/01 03:57:37;;;;;;;3.92;3.60;;;;;;;3.90;100.00;91950.34;2132987;27;20105;-82
2024/03/01 03:58:38;;;;;;;4.10;3.80;;;;;;;3.91;100.00;91952.63;2123867;27;20052;-81
2024/03/01 03:59:39;;;;;;;4.38;4.07;;;;;;;3.89;100.00;91948.88;2115341;28;20072;-83
2024/03/01 04:00:40;;;;;;;3.95;3.63;;;;;;;3.94;100.00;91945.78;2098686;28;20051;-82
2024/03/01 04:01:41;;;;;;;4.25;3.85;;;;;;;3.93;100.00;91946.91;2115240;28;20023;-82
2024/03/01 04:02:45;;;;;;;3.88;3.58;;;;;;;3.97;100.00;91951.00;2115501;27;20035;-82
2024/03/01 04:03:46;;;;;;;4.63;3.83;;;;;;;4.01;100.00;91948.31;2115853;27;20023;-81
2024/03/01 04:04:47;;;;;;;3.75;3.38;;;;;;;3.97;100.00;91945.72;2123673;27;20094;-81
2024/03/01 04:05:48;;;;;;;4.00;3.67;;;;;;;3.97;100.00;91951.00;2123912;27;20027;-82
2024/03/01 04:06:49;;;;;;;3.97;3.67;;;;;;;4.01;100.00;91950.94;2115288;28;20491;-81
2024/03/01 04:07:50;;;;;;;5.07;3.63;;;;;;;4.04;100.00;91950.16;2106807;28;20028;-81
2024/03/01 04:08:52;;;;;;;3.88;3.47;;;;;;;3.90;100.00;91950.34;2115386;28;20086;-82
2024/03/01 04:09:53;;;;;;;3.70;3.35;;;;;;;3.94;100.00;91957.09;2123791;27;20023;-81
2024/03/01 04:10:54;;;;;;;3.50;3.20;;;;;;;3.96;100.00;91960.09;2124386;27;20023;-82
2024/03/01 04:11:56;;;;;;;3.90;3.00;;;;;;;3.91;100.00;91963.19;2124173;27;20023;-81
2024/03/01 04:12:57;;;;;;;3.25;3.05;;;;;;;3.92;100.00;91964.69;2117167;27;20031;-81
2024/03/01 04:13:58;;;;;;;3.40;3.00;;;;;;;3.81;100.00;91968.63;2115376;28;20047;-81
2024/03/01 04:14:58;;;;;;;3.03;2.83;;;;;;;3.82;100.00;91962.19;2123738;27;20015;-82
2024/03/01 04:16:00;;;;;;;3.80;3.10;;;;;;;3.89;100.00;91962.84;2123606;27;20023;-81
2024/03/01 04:17:01;;;;;;;2.90;2.70;;;;;;;3.87;100.00;91957.22;2115209;28;20055;-82
2024/03/01 04:18:02;;;;;;;3.30;3.00;;;;;;;3.78;100.00;91964.91;2115331;27;20088;-81
2024/03/01 04:19:08;;;;;;;3.58;3.28;;;;;;;3.85;100.00;91964.03;2113092;28;20023;-81
2024/03/01 04:20:10;;;;;;;3.50;3.20;;;;;;;3.84;100.00;91962.53;2107135;28;20030;-83
2024/03/01 04:21:11;;;;;;;3.25;3.00;;;;;;;3.81;100.00;91966.72;2106733;27;20024;-81
2024/03/01 04:22:13;;;;;;;3.70;3.40;;;;;;;3.85;100.00;91967.41;2115039;28;20031;-81
2024/03/01 04:23:14;;;;;;;3.55;3.20;;;;;;;3.75;100.00;91965.69;2115294;28;20024;-83
2024/03/01 04:24:15;;;;;;;3.83;3.53;;;;;;;3.81;100.00;91969.38;2123707;27;20110;-81
2024/03/01 04:25:16;;;;;;;3.65;3.35;;;;;;;3.73;100.00;91973.25;2123447;27;20050;-82
2024/03/01 04:26:18;;;;;;;4.35;4.03;;;;;;;3.80;100.00;91970.53;2106460;28;20105;-81
2024/03/01 04:27:19;;;;;;;3.40;3.20;;;;;;;3.85;100.00;91979.91;2115313;28;20034;-83
2024/03/01 04:28:27;;;;;;;5.82;3.83;;;;;;;3.82;100.00;91981.47;2115074;28;20020;-82
2024/03/01 04:29:29;;;;;;;4.30;3.90;;;;;;;3.86;100.00;91979.47;2107957;28;20027;-85
2024/03/01 04:30:29;;;;;;;4.40;4.00;;;;;;;3.85;100.00;91980.63;2098557;28;20032;-81
2024/03/01 04:31:30;;;;;;;4.75;4.28;;;;;;;3.81;100.00;91987.88;2115053;28;20043;-82
2024/03/01 04:32:36;;;;;;;4.22;3.85;;;;;;;3.82;100.00;91985.97;2115021;28;20024;-81
2024/03/01 04:33:40;;;;;;;4.07;3.78;;;;;;;3.84;100.00;91978.41;2115188;27;20084;-81
2024/03/01 04:34:41;;;;;;;4.35;3.95;;;;;;;3.80;100.00;91973.16;2117805;27;20019;-82
2024/03/01 04:35:42;;;;;;;4.13;3.83;;;;;;;3.87;100.00;91977.63;2115040;28;20092;-81
2024/03/01 04:36:43;;;;;;;4.68;4.28;;;;;;;3.85;100.00;91985.94;2098509;28;20039;-81
2024/03/01 04:37:44;;;;;;;4.97;4.10;;;;;;;3.80;100.00;91981.09;2115097;28;20023;-82
2024/03/01 04:38:45;;;;;;;4.45;4.05;;;;;;;3.81;100.00;91977.31;2123533;27;20102;-81
2024/03/01 04:39:46;;;;;;;4.45;4.07;;;;;;;3.82;100.00;91978.81;2115071;28;20032;-81
2024/03/01 04:40:47;;;;;;;4.72;4.32;;;;;;;3.81;100.00;91977.31;2123623;27;20464;-81
2024/03/01 04:41:48;;;;;;;4.20;3.90;;;;;;;3.78;100.00;91980.75;2123492;27;20023;-80
2024/03/01 04:42:49;;;;;;;4.50;4.10;;;;;;;3.80;100.00;91983.75;2120189;27;20016;-81
2024/03/01 04:43:50;;;;;;;4.00;3.70;;;;;;;3.69;100.00;91991.09;2123456;27;20019;-80
2024/03/01 04:44:51;;;;;;;4.22;3.83;;;;;;;3.64;100.00;91983.59;2106749;28;20032;-82
2024/03/01 04:45:53;;;;;;;4.85;3.88;;;;;;;3.66;100.00;91989.97;2104285;28;20488;-80
2024/03/01 04:46:54;;;;;;;4.25;3.85;;;;;;;3.72;100.00;91988.38;2098141;28;20016;-81
2024/03/01 04:47:55;;;;;;;4.50;4.10;;;;;;;3.87;100.00;91986.28;2106370;28;20023;-81
2024/03/01 04:48:56;;;;;;;4.70;4.30;;;;;;;3.86;100.00;91979.47;2113007;28;20019;-81
2024/03/01 04:49:58;;;;;;;4.18;3.78;;;;;;;3.80;100.00;91989.03;2114071;27;20049;-82
2024/03/01 04:50:59;;;;;;;4.55;4.15;;;;;;;3.68;100.00;91987.69;2123235;27;20019;-81
2024/03/01 04:52:00;;;;;;;4.25;3.85;;;;;;;3.83;100.00;91982.19;2123969;27;20077;-81
2024/03/01 04:53:26;;;;;;;4.63;4.03;;;;;;;3.86;100.00;91981.38;2123307;27;20023;-81